sensor_id;sensor_type;location;lat;lon;timestamp;temperature;humidity
29575;DHT22;16507;51.046;6.406;2022-09-25T00:00:55;13.10;99.90
29575;DHT22;16507;51.046;6.406;2022-09-25T00:03:22;13.10;99.90
29575;DHT22;16507;51.046;6.406;2022-09-25T00:05:49;13.10;99.90
29575;DHT22;16507;51.046;6.406;2022-09-25T00:08:16;13.10;99.90
29575;DHT22;16507;51.046;6.406;2022-09-25T00:10:45;13.00;99.90
29575;DHT22;16507;51.046;6.406;2022-09-25T00:13:11;13.10;99.90
29575;DHT22;16507;51.046;6.406;2022-09-25T00:15:37;13.00;99.90
29575;DHT22;16507;51.046;6.406;2022-09-25T00:18:09;13.00;99.90
29575;DHT22;16507;51.046;6.406;2022-09-25T00:20:35;12.90;99.90
29575;DHT22;16507;51.046;6.406;2022-09-25T00:23:01;12.90;99.90
29575;DHT22;16507;51.046;6.406;2022-09-25T00:25:27;12.80;99.90
29575;DHT22;16507;51.046;6.406;2022-09-25T00:27:53;12.80;99.90
29575;DHT22;16507;51.046;6.406;2022-09-25T00:30:19;12.80;99.90
29575;DHT22;16507;51.046;6.406;2022-09-25T00:32:44;12.80;99.90
29575;DHT22;16507;51.046;6.406;2022-09-25T00:35:10;12.70;99.90
29575;DHT22;16507;51.046;6.406;2022-09-25T00:37:36;12.70;99.90
29575;DHT22;16507;51.046;6.406;2022-09-25T00:40:03;12.70;99.90
29575;DHT22;16507;51.046;6.406;2022-09-25T00:42:29;12.70;99.90
29575;DHT22;16507;51.046;6.406;2022-09-25T00:44:59;12.70;99.90
29575;DHT22;16507;51.046;6.406;2022-09-25T00:47:38;12.70;99.90
29575;DHT22;16507;51.046;6.406;2022-09-25T00:50:57;12.60;99.90
29575;DHT22;16507;51.046;6.406;2022-09-25T00:53:27;12.60;99.90
29575;DHT22;16507;51.046;6.406;2022-09-25T00:55:56;12.60;99.90
29575;DHT22;16507;51.046;6.406;2022-09-25T00:58:23;12.60;99.90
29575;DHT22;16507;51.046;6.406;2022-09-25T01:00:52;12.60;99.90
29575;DHT22;16507;51.046;6.406;2022-09-25T01:03:19;12.60;99.90
29575;DHT22;16507;51.046;6.406;2022-09-25T01:05:44;12.60;99.90
29575;DHT22;16507;51.046;6.406;2022-09-25T01:08:14;12.60;99.90
29575;DHT22;16507;51.046;6.406;2022-09-25T01:10:41;12.60;99.90
29575;DHT22;16507;51.046;6.406;2022-09-25T01:13:07;12.60;99.90
29575;DHT22;16507;51.046;6.406;2022-09-25T01:15:43;12.60;99.90
29575;DHT22;16507;51.046;6.406;2022-09-25T01:18:36;12.60;99.90
29575;DHT22;16507;51.046;6.406;2022-09-25T01:29:44;12.50;99.90
29575;DHT22;16507;51.046;6.406;2022-09-25T01:32:33;12.50;99.90
29575;DHT22;16507;51.046;6.406;2022-09-25T01:35:17;12.50;99.90
29575;DHT22;16507;51.046;6.406;2022-09-25T01:43:44;12.50;99.90
29575;DHT22;16507;51.046;6.406;2022-09-25T01:46:18;12.50;99.90
29575;DHT22;16507;51.046;6.406;2022-09-25T01:48:50;12.50;99.90
29575;DHT22;16507;51.046;6.406;2022-09-25T01:51:23;12.40;99.90
29575;DHT22;16507;51.046;6.406;2022-09-25T01:53:54;12.50;99.90
29575;DHT22;16507;51.046;6.406;2022-09-25T01:56:26;12.50;99.90
29575;DHT22;16507;51.046;6.406;2022-09-25T01:59:03;12.50;99.90
29575;DHT22;16507;51.046;6.406;2022-09-25T02:01:33;12.40;99.90
29575;DHT22;16507;51.046;6.406;2022-09-25T02:04:07;12.50;99.90
29575;DHT22;16507;51.046;6.406;2022-09-25T02:06:36;12.50;99.90
29575;DHT22;16507;51.046;6.406;2022-09-25T02:09:12;12.40;99.90
29575;DHT22;16507;51.046;6.406;2022-09-25T02:11:43;12.50;99.90
29575;DHT22;16507;51.046;6.406;2022-09-25T02:16:47;12.40;99.90
29575;DHT22;16507;51.046;6.406;2022-09-25T02:19:15;12.40;99.90
29575;DHT22;16507;51.046;6.406;2022-09-25T02:22:09;12.40;99.90
29575;DHT22;16507;51.046;6.406;2022-09-25T02:24:46;12.30;99.90
29575;DHT22;16507;51.046;6.406;2022-09-25T02:27:15;12.30;99.90
29575;DHT22;16507;51.046;6.406;2022-09-25T02:29:44;12.30;99.90
29575;DHT22;16507;51.046;6.406;2022-09-25T02:32:17;12.30;99.90
29575;DHT22;16507;51.046;6.406;2022-09-25T02:34:43;12.30;99.90
29575;DHT22;16507;51.046;6.406;2022-09-25T02:37:13;12.20;99.90
29575;DHT22;16507;51.046;6.406;2022-09-25T02:39:40;12.30;99.90
29575;DHT22;16507;51.046;6.406;2022-09-25T02:47:38;12.30;99.90
29575;DHT22;16507;51.046;6.406;2022-09-25T02:53:14;12.20;99.90
29575;DHT22;16507;51.046;6.406;2022-09-25T02:56:01;12.20;99.90
29575;DHT22;16507;51.046;6.406;2022-09-25T02:58:39;12.20;99.90
29575;DHT22;16507;51.046;6.406;2022-09-25T03:01:08;12.20;99.90
29575;DHT22;16507;51.046;6.406;2022-09-25T03:03:36;12.20;99.90
29575;DHT22;16507;51.046;6.406;2022-09-25T03:06:03;12.20;99.90
29575;DHT22;16507;51.046;6.406;2022-09-25T03:08:30;12.20;99.90
29575;DHT22;16507;51.046;6.406;2022-09-25T03:13:33;12.20;99.90
29575;DHT22;16507;51.046;6.406;2022-09-25T03:16:17;12.20;99.90
29575;DHT22;16507;51.046;6.406;2022-09-25T03:18:46;12.20;99.90
29575;DHT22;16507;51.046;6.406;2022-09-25T03:21:12;12.20;99.90
29575;DHT22;16507;51.046;6.406;2022-09-25T03:23:38;12.20;99.90
29575;DHT22;16507;51.046;6.406;2022-09-25T03:26:05;12.20;99.90
29575;DHT22;16507;51.046;6.406;2022-09-25T03:28:31;12.20;99.90
29575;DHT22;16507;51.046;6.406;2022-09-25T03:31:00;12.20;99.90
29575;DHT22;16507;51.046;6.406;2022-09-25T03:33:27;12.20;99.90
29575;DHT22;16507;51.046;6.406;2022-09-25T03:36:05;12.20;99.90
29575;DHT22;16507;51.046;6.406;2022-09-25T03:38:32;12.20;99.90
29575;DHT22;16507;51.046;6.406;2022-09-25T03:40:57;12.20;99.90
29575;DHT22;16507;51.046;6.406;2022-09-25T03:43:23;12.20;99.90
29575;DHT22;16507;51.046;6.406;2022-09-25T03:45:48;12.10;99.90
29575;DHT22;16507;51.046;6.406;2022-09-25T03:48:14;12.10;99.90
29575;DHT22;16507;51.046;6.406;2022-09-25T03:50:40;12.10;99.90
29575;DHT22;16507;51.046;6.406;2022-09-25T03:53:06;12.10;99.90
29575;DHT22;16507;51.046;6.406;2022-09-25T03:55:32;12.10;99.90
29575;DHT22;16507;51.046;6.406;2022-09-25T03:57:58;12.00;99.90
29575;DHT22;16507;51.046;6.406;2022-09-25T04:00:23;12.00;99.90
29575;DHT22;16507;51.046;6.406;2022-09-25T04:02:49;12.00;99.90
29575;DHT22;16507;51.046;6.406;2022-09-25T04:05:15;12.00;99.90
29575;DHT22;16507;51.046;6.406;2022-09-25T04:07:45;12.00;99.90
29575;DHT22;16507;51.046;6.406;2022-09-25T04:10:12;12.00;99.90
29575;DHT22;16507;51.046;6.406;2022-09-25T04:12:39;11.90;99.90
29575;DHT22;16507;51.046;6.406;2022-09-25T04:15:06;11.90;99.90
29575;DHT22;16507;51.046;6.406;2022-09-25T04:17:33;11.90;99.90
29575;DHT22;16507;51.046;6.406;2022-09-25T04:20:00;11.90;99.90
29575;DHT22;16507;51.046;6.406;2022-09-25T04:22:26;11.90;99.90
29575;DHT22;16507;51.046;6.406;2022-09-25T04:24:51;11.80;99.90
29575;DHT22;16507;51.046;6.406;2022-09-25T04:27:20;11.80;99.90
29575;DHT22;16507;51.046;6.406;2022-09-25T04:29:47;11.80;99.90
29575;DHT22;16507;51.046;6.406;2022-09-25T04:32:14;11.80;99.90
29575;DHT22;16507;51.046;6.406;2022-09-25T04:34:58;11.80;99.90
29575;DHT22;16507;51.046;6.406;2022-09-25T04:37:24;11.70;99.90
29575;DHT22;16507;51.046;6.406;2022-09-25T04:39:56;11.80;99.90
29575;DHT22;16507;51.046;6.406;2022-09-25T04:42:22;11.80;99.90
29575;DHT22;16507;51.046;6.406;2022-09-25T04:44:53;11.70;99.90
29575;DHT22;16507;51.046;6.406;2022-09-25T04:47:20;11.70;99.90
29575;DHT22;16507;51.046;6.406;2022-09-25T04:49:46;11.70;99.90
29575;DHT22;16507;51.046;6.406;2022-09-25T04:52:13;11.70;99.90
29575;DHT22;16507;51.046;6.406;2022-09-25T04:54:40;11.70;99.90
29575;DHT22;16507;51.046;6.406;2022-09-25T04:57:06;11.60;99.90
29575;DHT22;16507;51.046;6.406;2022-09-25T04:59:31;11.70;99.90
29575;DHT22;16507;51.046;6.406;2022-09-25T05:01:57;11.60;99.90
29575;DHT22;16507;51.046;6.406;2022-09-25T05:04:22;11.60;99.90
29575;DHT22;16507;51.046;6.406;2022-09-25T05:06:48;11.60;99.90
29575;DHT22;16507;51.046;6.406;2022-09-25T05:09:15;11.60;99.90
29575;DHT22;16507;51.046;6.406;2022-09-25T05:11:40;11.60;99.90
29575;DHT22;16507;51.046;6.406;2022-09-25T05:14:06;11.60;99.90
29575;DHT22;16507;51.046;6.406;2022-09-25T05:16:32;11.60;99.90
29575;DHT22;16507;51.046;6.406;2022-09-25T05:18:58;11.50;99.90
29575;DHT22;16507;51.046;6.406;2022-09-25T05:21:24;11.60;99.90
29575;DHT22;16507;51.046;6.406;2022-09-25T05:23:50;11.50;99.90
29575;DHT22;16507;51.046;6.406;2022-09-25T05:26:15;11.50;99.90
29575;DHT22;16507;51.046;6.406;2022-09-25T05:28:41;11.50;99.90
29575;DHT22;16507;51.046;6.406;2022-09-25T05:31:06;11.50;99.90
29575;DHT22;16507;51.046;6.406;2022-09-25T05:33:33;11.50;99.90
29575;DHT22;16507;51.046;6.406;2022-09-25T05:36:04;11.50;99.90
29575;DHT22;16507;51.046;6.406;2022-09-25T05:38:34;11.50;99.90
29575;DHT22;16507;51.046;6.406;2022-09-25T05:41:04;11.50;99.90
29575;DHT22;16507;51.046;6.406;2022-09-25T05:43:31;11.40;99.90
29575;DHT22;16507;51.046;6.406;2022-09-25T05:45:57;11.40;99.90
29575;DHT22;16507;51.046;6.406;2022-09-25T05:48:24;11.40;99.90
29575;DHT22;16507;51.046;6.406;2022-09-25T05:50:57;11.40;99.90
29575;DHT22;16507;51.046;6.406;2022-09-25T05:53:23;11.40;99.90
29575;DHT22;16507;51.046;6.406;2022-09-25T05:58:15;11.40;99.90
29575;DHT22;16507;51.046;6.406;2022-09-25T06:00:41;11.40;99.90
29575;DHT22;16507;51.046;6.406;2022-09-25T06:03:07;11.40;99.90
29575;DHT22;16507;51.046;6.406;2022-09-25T06:05:33;11.40;99.90
29575;DHT22;16507;51.046;6.406;2022-09-25T06:07:59;11.40;99.90
29575;DHT22;16507;51.046;6.406;2022-09-25T06:10:24;11.40;99.90
29575;DHT22;16507;51.046;6.406;2022-09-25T06:12:57;11.50;99.90
29575;DHT22;16507;51.046;6.406;2022-09-25T06:15:27;11.50;99.90
29575;DHT22;16507;51.046;6.406;2022-09-25T06:17:56;11.50;99.90
29575;DHT22;16507;51.046;6.406;2022-09-25T06:20:22;11.50;99.90
29575;DHT22;16507;51.046;6.406;2022-09-25T06:22:54;11.60;99.90
29575;DHT22;16507;51.046;6.406;2022-09-25T06:25:22;11.70;99.90
29575;DHT22;16507;51.046;6.406;2022-09-25T06:27:51;11.70;99.90
29575;DHT22;16507;51.046;6.406;2022-09-25T06:30:17;12.10;99.90
29575;DHT22;16507;51.046;6.406;2022-09-25T06:32:44;12.10;99.90
29575;DHT22;16507;51.046;6.406;2022-09-25T06:35:10;12.00;99.90
29575;DHT22;16507;51.046;6.406;2022-09-25T06:37:36;12.00;99.90
29575;DHT22;16507;51.046;6.406;2022-09-25T06:40:02;12.00;99.90
29575;DHT22;16507;51.046;6.406;2022-09-25T06:42:27;12.00;99.90
29575;DHT22;16507;51.046;6.406;2022-09-25T06:44:53;12.10;99.90
29575;DHT22;16507;51.046;6.406;2022-09-25T06:47:18;12.10;99.90
29575;DHT22;16507;51.046;6.406;2022-09-25T06:49:45;12.00;99.90
29575;DHT22;16507;51.046;6.406;2022-09-25T06:52:11;12.10;99.90
29575;DHT22;16507;51.046;6.406;2022-09-25T06:54:36;12.00;99.90
29575;DHT22;16507;51.046;6.406;2022-09-25T06:57:02;11.90;99.90
29575;DHT22;16507;51.046;6.406;2022-09-25T06:59:28;11.80;99.90
29575;DHT22;16507;51.046;6.406;2022-09-25T07:01:53;11.70;99.90
29575;DHT22;16507;51.046;6.406;2022-09-25T07:04:19;11.70;99.90
29575;DHT22;16507;51.046;6.406;2022-09-25T07:06:46;11.60;99.90
29575;DHT22;16507;51.046;6.406;2022-09-25T07:09:12;11.60;99.90
29575;DHT22;16507;51.046;6.406;2022-09-25T07:11:37;11.50;99.90
29575;DHT22;16507;51.046;6.406;2022-09-25T07:14:05;11.50;99.90
29575;DHT22;16507;51.046;6.406;2022-09-25T07:16:30;11.50;99.90
29575;DHT22;16507;51.046;6.406;2022-09-25T07:18:58;11.60;99.90
29575;DHT22;16507;51.046;6.406;2022-09-25T07:21:25;11.70;99.90
29575;DHT22;16507;51.046;6.406;2022-09-25T07:23:54;11.80;99.90
29575;DHT22;16507;51.046;6.406;2022-09-25T07:26:25;12.00;99.90
29575;DHT22;16507;51.046;6.406;2022-09-25T07:29:02;12.00;99.90
29575;DHT22;16507;51.046;6.406;2022-09-25T07:31:31;12.20;99.90
29575;DHT22;16507;51.046;6.406;2022-09-25T07:33:58;12.30;99.90
29575;DHT22;16507;51.046;6.406;2022-09-25T07:36:25;12.40;99.90
29575;DHT22;16507;51.046;6.406;2022-09-25T07:38:51;12.30;99.90
29575;DHT22;16507;51.046;6.406;2022-09-25T07:41:18;12.40;99.90
29575;DHT22;16507;51.046;6.406;2022-09-25T07:43:44;12.50;99.90
29575;DHT22;16507;51.046;6.406;2022-09-25T07:46:11;12.50;99.90
29575;DHT22;16507;51.046;6.406;2022-09-25T07:48:37;12.60;99.90
29575;DHT22;16507;51.046;6.406;2022-09-25T07:51:04;12.70;99.90
29575;DHT22;16507;51.046;6.406;2022-09-25T07:53:31;12.70;99.90
29575;DHT22;16507;51.046;6.406;2022-09-25T07:56:00;12.70;99.90
29575;DHT22;16507;51.046;6.406;2022-09-25T07:58:27;12.60;99.90
29575;DHT22;16507;51.046;6.406;2022-09-25T08:00:57;12.70;99.90
29575;DHT22;16507;51.046;6.406;2022-09-25T08:03:23;12.90;99.90
29575;DHT22;16507;51.046;6.406;2022-09-25T08:05:56;12.90;99.90
29575;DHT22;16507;51.046;6.406;2022-09-25T08:08:22;12.80;99.90
29575;DHT22;16507;51.046;6.406;2022-09-25T08:10:48;13.00;99.90
29575;DHT22;16507;51.046;6.406;2022-09-25T08:13:13;13.10;99.90
29575;DHT22;16507;51.046;6.406;2022-09-25T08:15:42;13.20;99.90
29575;DHT22;16507;51.046;6.406;2022-09-25T08:18:07;13.20;99.90
29575;DHT22;16507;51.046;6.406;2022-09-25T08:20:33;13.30;99.90
29575;DHT22;16507;51.046;6.406;2022-09-25T08:23:04;13.50;99.90
29575;DHT22;16507;51.046;6.406;2022-09-25T08:25:29;13.70;99.90
29575;DHT22;16507;51.046;6.406;2022-09-25T08:27:55;13.80;99.90
29575;DHT22;16507;51.046;6.406;2022-09-25T08:30:20;13.90;99.90
29575;DHT22;16507;51.046;6.406;2022-09-25T08:32:46;13.90;99.90
29575;DHT22;16507;51.046;6.406;2022-09-25T08:35:12;13.80;99.90
29575;DHT22;16507;51.046;6.406;2022-09-25T08:37:41;13.80;99.90
29575;DHT22;16507;51.046;6.406;2022-09-25T08:40:26;14.00;99.90
29575;DHT22;16507;51.046;6.406;2022-09-25T08:42:53;14.10;99.90
29575;DHT22;16507;51.046;6.406;2022-09-25T08:45:29;14.30;99.90
29575;DHT22;16507;51.046;6.406;2022-09-25T08:48:23;14.40;99.90
29575;DHT22;16507;51.046;6.406;2022-09-25T08:51:09;14.10;99.90
29575;DHT22;16507;51.046;6.406;2022-09-25T08:53:35;14.40;99.90
29575;DHT22;16507;51.046;6.406;2022-09-25T08:56:04;14.30;99.90
29575;DHT22;16507;51.046;6.406;2022-09-25T08:58:52;14.00;99.90
29575;DHT22;16507;51.046;6.406;2022-09-25T09:01:29;14.20;99.90
29575;DHT22;16507;51.046;6.406;2022-09-25T09:06:31;14.50;99.90
29575;DHT22;16507;51.046;6.406;2022-09-25T09:09:03;14.60;99.90
29575;DHT22;16507;51.046;6.406;2022-09-25T09:11:39;14.70;99.90
29575;DHT22;16507;51.046;6.406;2022-09-25T09:14:16;14.80;99.90
29575;DHT22;16507;51.046;6.406;2022-09-25T09:17:07;14.70;99.90
29575;DHT22;16507;51.046;6.406;2022-09-25T09:19:36;14.70;99.90
29575;DHT22;16507;51.046;6.406;2022-09-25T09:22:08;14.60;99.90
29575;DHT22;16507;51.046;6.406;2022-09-25T09:35:34;15.50;99.90
29575;DHT22;16507;51.046;6.406;2022-09-25T09:38:35;15.60;99.90
29575;DHT22;16507;51.046;6.406;2022-09-25T09:41:24;15.50;99.90
29575;DHT22;16507;51.046;6.406;2022-09-25T09:44:11;15.40;99.90
29575;DHT22;16507;51.046;6.406;2022-09-25T09:49:39;15.40;99.90
29575;DHT22;16507;51.046;6.406;2022-09-25T09:52:12;15.90;99.90
29575;DHT22;16507;51.046;6.406;2022-09-25T09:54:48;16.10;99.90
29575;DHT22;16507;51.046;6.406;2022-09-25T09:57:27;16.20;99.90
29575;DHT22;16507;51.046;6.406;2022-09-25T10:00:02;16.10;99.90
29575;DHT22;16507;51.046;6.406;2022-09-25T10:07:45;16.30;99.90
29575;DHT22;16507;51.046;6.406;2022-09-25T10:10:14;15.90;99.90
29575;DHT22;16507;51.046;6.406;2022-09-25T10:12:50;15.60;99.90
29575;DHT22;16507;51.046;6.406;2022-09-25T10:15:29;15.80;99.90
29575;DHT22;16507;51.046;6.406;2022-09-25T10:17:58;15.60;99.90
29575;DHT22;16507;51.046;6.406;2022-09-25T10:20:39;15.20;99.90
29575;DHT22;16507;51.046;6.406;2022-09-25T10:23:05;15.20;99.90
29575;DHT22;16507;51.046;6.406;2022-09-25T10:25:40;15.50;99.90
29575;DHT22;16507;51.046;6.406;2022-09-25T10:30:46;15.60;99.90
29575;DHT22;16507;51.046;6.406;2022-09-25T10:33:19;15.90;99.90
29575;DHT22;16507;51.046;6.406;2022-09-25T10:35:46;15.90;99.90
29575;DHT22;16507;51.046;6.406;2022-09-25T10:38:38;16.20;99.90
29575;DHT22;16507;51.046;6.406;2022-09-25T10:41:14;16.40;99.90
29575;DHT22;16507;51.046;6.406;2022-09-25T10:43:54;16.50;99.90
29575;DHT22;16507;51.046;6.406;2022-09-25T10:49:20;16.20;99.90
29575;DHT22;16507;51.046;6.406;2022-09-25T10:52:13;15.70;99.90
29575;DHT22;16507;51.046;6.406;2022-09-25T10:54:40;15.50;99.90
29575;DHT22;16507;51.046;6.406;2022-09-25T10:57:37;15.70;99.90
29575;DHT22;16507;51.046;6.406;2022-09-25T11:00:24;16.40;99.90
29575;DHT22;16507;51.046;6.406;2022-09-25T11:02:56;16.50;99.90
29575;DHT22;16507;51.046;6.406;2022-09-25T11:05:28;16.80;99.90
29575;DHT22;16507;51.046;6.406;2022-09-25T11:10:28;16.40;99.90
29575;DHT22;16507;51.046;6.406;2022-09-25T11:12:56;16.50;99.90
29575;DHT22;16507;51.046;6.406;2022-09-25T11:15:25;16.90;99.90
29575;DHT22;16507;51.046;6.406;2022-09-25T11:17:53;16.80;99.90
29575;DHT22;16507;51.046;6.406;2022-09-25T11:22:52;17.10;99.90
29575;DHT22;16507;51.046;6.406;2022-09-25T11:25:26;16.80;99.90
29575;DHT22;16507;51.046;6.406;2022-09-25T11:30:57;16.90;95.20
29575;DHT22;16507;51.046;6.406;2022-09-25T11:33:50;16.90;72.80
29575;DHT22;16507;51.046;6.406;2022-09-25T11:36:28;16.90;66.20
29575;DHT22;16507;51.046;6.406;2022-09-25T11:39:02;17.00;89.40
29575;DHT22;16507;51.046;6.406;2022-09-25T11:42:12;16.80;75.40
29575;DHT22;16507;51.046;6.406;2022-09-25T11:44:41;16.90;77.90
29575;DHT22;16507;51.046;6.406;2022-09-25T11:47:43;17.10;78.00
29575;DHT22;16507;51.046;6.406;2022-09-25T11:50:13;17.20;76.20
29575;DHT22;16507;51.046;6.406;2022-09-25T11:52:46;17.20;92.00
29575;DHT22;16507;51.046;6.406;2022-09-25T11:55:44;17.10;82.20
29575;DHT22;16507;51.046;6.406;2022-09-25T12:01:04;17.30;90.10
29575;DHT22;16507;51.046;6.406;2022-09-25T12:06:47;17.30;77.30
29575;DHT22;16507;51.046;6.406;2022-09-25T12:28:50;17.10;99.90
29575;DHT22;16507;51.046;6.406;2022-09-25T12:34:02;17.70;66.80
29575;DHT22;16507;51.046;6.406;2022-09-25T12:36:45;17.90;81.20
29575;DHT22;16507;51.046;6.406;2022-09-25T12:42:13;18.10;81.70
29575;DHT22;16507;51.046;6.406;2022-09-25T12:55:11;17.40;59.70
29575;DHT22;16507;51.046;6.406;2022-09-25T12:57:44;16.70;87.30
29575;DHT22;16507;51.046;6.406;2022-09-25T13:00:18;16.50;99.90
29575;DHT22;16507;51.046;6.406;2022-09-25T13:03:11;16.80;66.00
29575;DHT22;16507;51.046;6.406;2022-09-25T13:05:48;17.40;55.00
29575;DHT22;16507;51.046;6.406;2022-09-25T13:08:31;17.50;44.00
29575;DHT22;16507;51.046;6.406;2022-09-25T13:11:06;17.70;46.70
29575;DHT22;16507;51.046;6.406;2022-09-25T13:13:41;17.80;42.60
29575;DHT22;16507;51.046;6.406;2022-09-25T13:16:09;17.80;55.00
29575;DHT22;16507;51.046;6.406;2022-09-25T13:18:37;17.80;63.50
29575;DHT22;16507;51.046;6.406;2022-09-25T13:21:28;17.90;63.00
29575;DHT22;16507;51.046;6.406;2022-09-25T13:23:54;18.10;58.20
29575;DHT22;16507;51.046;6.406;2022-09-25T13:26:23;18.30;53.10
29575;DHT22;16507;51.046;6.406;2022-09-25T13:28:58;18.40;52.90
29575;DHT22;16507;51.046;6.406;2022-09-25T13:31:30;18.60;51.30
29575;DHT22;16507;51.046;6.406;2022-09-25T13:36:48;18.50;51.80
29575;DHT22;16507;51.046;6.406;2022-09-25T13:42:07;18.40;49.10
29575;DHT22;16507;51.046;6.406;2022-09-25T13:55:17;18.20;44.50
29575;DHT22;16507;51.046;6.406;2022-09-25T14:03:02;17.60;48.30
29575;DHT22;16507;51.046;6.406;2022-09-25T14:05:29;17.70;49.20
29575;DHT22;16507;51.046;6.406;2022-09-25T14:08:06;17.90;50.90
29575;DHT22;16507;51.046;6.406;2022-09-25T14:10:33;18.00;48.00
29575;DHT22;16507;51.046;6.406;2022-09-25T14:13:00;18.20;49.00
29575;DHT22;16507;51.046;6.406;2022-09-25T14:15:33;18.20;43.70
29575;DHT22;16507;51.046;6.406;2022-09-25T14:18:06;18.10;43.40
29575;DHT22;16507;51.046;6.406;2022-09-25T14:20:34;17.80;44.80
29575;DHT22;16507;51.046;6.406;2022-09-25T14:25:38;17.90;47.40
29575;DHT22;16507;51.046;6.406;2022-09-25T14:28:21;18.10;50.00
29575;DHT22;16507;51.046;6.406;2022-09-25T14:36:46;17.90;49.00
29575;DHT22;16507;51.046;6.406;2022-09-25T14:39:46;17.80;48.10
29575;DHT22;16507;51.046;6.406;2022-09-25T14:42:54;17.80;51.40
29575;DHT22;16507;51.046;6.406;2022-09-25T14:48:10;18.00;52.30
29575;DHT22;16507;51.046;6.406;2022-09-25T14:50:41;18.20;49.60
29575;DHT22;16507;51.046;6.406;2022-09-25T14:53:15;18.50;51.30
29575;DHT22;16507;51.046;6.406;2022-09-25T14:55:45;18.30;49.00
29575;DHT22;16507;51.046;6.406;2022-09-25T14:58:17;18.20;49.60
29575;DHT22;16507;51.046;6.406;2022-09-25T15:00:50;18.10;49.20
29575;DHT22;16507;51.046;6.406;2022-09-25T15:03:19;18.20;50.00
29575;DHT22;16507;51.046;6.406;2022-09-25T15:05:47;18.40;47.50
29575;DHT22;16507;51.046;6.406;2022-09-25T15:08:20;18.50;48.70
29575;DHT22;16507;51.046;6.406;2022-09-25T15:10:48;18.60;48.80
29575;DHT22;16507;51.046;6.406;2022-09-25T15:13:24;18.70;43.60
29575;DHT22;16507;51.046;6.406;2022-09-25T15:15:55;18.40;44.40
29575;DHT22;16507;51.046;6.406;2022-09-25T15:18:41;17.80;44.90
29575;DHT22;16507;51.046;6.406;2022-09-25T15:21:18;17.20;52.20
29575;DHT22;16507;51.046;6.406;2022-09-25T15:23:46;16.90;52.10
29575;DHT22;16507;51.046;6.406;2022-09-25T15:26:15;16.60;58.90
29575;DHT22;16507;51.046;6.406;2022-09-25T15:28:43;16.30;74.60
29575;DHT22;16507;51.046;6.406;2022-09-25T15:31:09;16.10;86.00
29575;DHT22;16507;51.046;6.406;2022-09-25T15:33:37;16.10;98.60
29575;DHT22;16507;51.046;6.406;2022-09-25T15:36:16;16.20;99.90
29575;DHT22;16507;51.046;6.406;2022-09-25T15:38:42;16.30;97.00
29575;DHT22;16507;51.046;6.406;2022-09-25T15:41:13;16.50;91.70
29575;DHT22;16507;51.046;6.406;2022-09-25T15:43:41;16.50;78.30
29575;DHT22;16507;51.046;6.406;2022-09-25T15:48:39;16.50;77.60
29575;DHT22;16507;51.046;6.406;2022-09-25T15:54:38;16.30;91.60
29575;DHT22;16507;51.046;6.406;2022-09-25T15:57:14;16.20;92.40
29575;DHT22;16507;51.046;6.406;2022-09-25T15:59:41;16.00;99.90
29575;DHT22;16507;51.046;6.406;2022-09-25T16:02:28;15.90;99.90
29575;DHT22;16507;51.046;6.406;2022-09-25T16:05:15;15.80;99.90
29575;DHT22;16507;51.046;6.406;2022-09-25T16:07:45;15.60;99.90
29575;DHT22;16507;51.046;6.406;2022-09-25T16:12:45;15.40;99.90
29575;DHT22;16507;51.046;6.406;2022-09-25T16:17:52;15.20;99.90
29575;DHT22;16507;51.046;6.406;2022-09-25T16:22:50;15.20;99.90
29575;DHT22;16507;51.046;6.406;2022-09-25T16:25:24;15.10;99.90
29575;DHT22;16507;51.046;6.406;2022-09-25T16:27:53;15.00;99.90
29575;DHT22;16507;51.046;6.406;2022-09-25T16:30:21;15.00;99.90
29575;DHT22;16507;51.046;6.406;2022-09-25T16:32:50;14.90;99.90
29575;DHT22;16507;51.046;6.406;2022-09-25T16:35:37;14.90;99.90
29575;DHT22;16507;51.046;6.406;2022-09-25T16:38:04;14.80;99.90
29575;DHT22;16507;51.046;6.406;2022-09-25T16:40:31;14.80;99.90
29575;DHT22;16507;51.046;6.406;2022-09-25T16:42:59;14.70;99.90
29575;DHT22;16507;51.046;6.406;2022-09-25T16:45:26;14.70;99.90
29575;DHT22;16507;51.046;6.406;2022-09-25T16:47:56;14.60;99.90
29575;DHT22;16507;51.046;6.406;2022-09-25T16:50:24;14.60;99.90
29575;DHT22;16507;51.046;6.406;2022-09-25T16:52:50;14.50;99.90
29575;DHT22;16507;51.046;6.406;2022-09-25T16:55:25;14.40;99.90
29575;DHT22;16507;51.046;6.406;2022-09-25T16:57:54;14.30;99.90
29575;DHT22;16507;51.046;6.406;2022-09-25T17:00:25;14.30;99.90
29575;DHT22;16507;51.046;6.406;2022-09-25T17:02:52;14.20;99.90
29575;DHT22;16507;51.046;6.406;2022-09-25T17:05:27;14.10;99.90
29575;DHT22;16507;51.046;6.406;2022-09-25T17:08:10;14.00;99.90
29575;DHT22;16507;51.046;6.406;2022-09-25T17:10:39;13.90;99.90
29575;DHT22;16507;51.046;6.406;2022-09-25T17:13:05;13.90;99.90
29575;DHT22;16507;51.046;6.406;2022-09-25T17:15:35;13.80;99.90
29575;DHT22;16507;51.046;6.406;2022-09-25T17:18:01;13.70;99.90
29575;DHT22;16507;51.046;6.406;2022-09-25T17:20:29;13.50;99.90
29575;DHT22;16507;51.046;6.406;2022-09-25T17:22:58;13.50;99.90
29575;DHT22;16507;51.046;6.406;2022-09-25T17:25:43;13.40;99.90
29575;DHT22;16507;51.046;6.406;2022-09-25T17:28:12;13.30;99.90
29575;DHT22;16507;51.046;6.406;2022-09-25T17:30:40;13.20;99.90
29575;DHT22;16507;51.046;6.406;2022-09-25T17:33:17;13.00;99.90
29575;DHT22;16507;51.046;6.406;2022-09-25T17:35:52;12.80;99.90
29575;DHT22;16507;51.046;6.406;2022-09-25T17:38:20;12.60;99.90
29575;DHT22;16507;51.046;6.406;2022-09-25T17:40:47;12.40;99.90
29575;DHT22;16507;51.046;6.406;2022-09-25T17:43:17;12.30;99.90
29575;DHT22;16507;51.046;6.406;2022-09-25T17:45:46;12.20;99.90
29575;DHT22;16507;51.046;6.406;2022-09-25T17:48:19;12.20;99.90
29575;DHT22;16507;51.046;6.406;2022-09-25T17:50:51;12.00;99.90
29575;DHT22;16507;51.046;6.406;2022-09-25T17:53:19;12.00;99.90
29575;DHT22;16507;51.046;6.406;2022-09-25T17:55:46;11.80;99.90
29575;DHT22;16507;51.046;6.406;2022-09-25T17:58:13;11.70;99.90
29575;DHT22;16507;51.046;6.406;2022-09-25T18:00:39;11.50;99.90
29575;DHT22;16507;51.046;6.406;2022-09-25T18:03:04;11.40;99.90
29575;DHT22;16507;51.046;6.406;2022-09-25T18:05:30;11.30;99.90
29575;DHT22;16507;51.046;6.406;2022-09-25T18:07:56;11.30;99.90
29575;DHT22;16507;51.046;6.406;2022-09-25T18:10:24;11.30;99.90
29575;DHT22;16507;51.046;6.406;2022-09-25T18:12:54;11.30;99.90
29575;DHT22;16507;51.046;6.406;2022-09-25T18:15:20;11.30;99.90
29575;DHT22;16507;51.046;6.406;2022-09-25T18:17:46;11.30;99.90
29575;DHT22;16507;51.046;6.406;2022-09-25T18:20:12;11.30;99.90
29575;DHT22;16507;51.046;6.406;2022-09-25T18:22:57;11.30;99.90
29575;DHT22;16507;51.046;6.406;2022-09-25T18:25:23;11.30;99.90
29575;DHT22;16507;51.046;6.406;2022-09-25T18:27:48;11.30;99.90